Terminal Aerodrome Forecast
Issued by NWS Upton, NY

Home | Current Version | Previous Version | Text Only | Print | Product List | Glossary On
Versions: 1 2 3 4 5 6 7 8 9 10 11 12 13 14 15 16 17 18 19 20 21 22 23 24 25 26 27 28 29 30 31 32 33 34 35 36 37 38 39
000
FTUS41 KOKX 201123
TAFISP
TAF
KISP 201123Z 2012/2112 02018G27KT P6SM BKN015 BKN025
     FM201500 35020G28KT P6SM BKN025 BKN250
     FM202200 35015G25KT P6SM SCT025 BKN250
     FM210500 35013KT P6SM BKN025 BKN250=

USA.gov is the U.S. government's official web portal to all federal, state and local government web resources and services.